Hovedside
METAR-TAF:

METAR-TAF

Lufthavner :

Røros lufthavn

Røros, Norge

breddegrad: 62-35N, lengdegrad: 011-21E, høyde over havet: 626 m

Gjeldene værobservasjon

Denne rapporten ble laget for 21 minutter siden, klokken 11:20 UTC
Vind 16 kt fra Nordvest, skiftende mellom Vest-nordvest og Nord
Temperatur 9°C
Luftfuktighet 57%
Trykk 1010 hPa
Sikt 10 km eller mer
Brutte skyer i en høyde av 3400 ft

METAR: ENRO 191120Z 32016KT 290V350 9999 BKN034 09/01 Q1010

Tid: 13:41 (11:41 UTC)

Varsel

Denne rapporten ble laget for 1 time og 51 minutter siden, klokken 09:50 UTC
Varsel gyldig fra 19. klokken 09 UTC til 19. klokken 18 UTC
Vind 12 kt fra Nord-nordvest
Sikt 10 km eller mer
Få skyer i en høyde av 1200 ft
Brutte skyer i en høyde av 2000 ft
Midlertidig
fra 19. klokken 09 UTC til 19. klokken 14 UTC
Vind 15 kt fra Nord-nordvest med vindkast opp mot 25 kt

TAF: ENRO 190950Z 1909/1918 33012KT 9999 FEW012 BKN020 TEMPO 1909/1914 33015G25KT

Værobservasjoner og værvarsel for over 4000 flyplasser (METAR- og TAF-rapporter).

Tilgjengelige stasjoner er representert av de røde og gule prikkene på kartet.

Hold musepekeren over prikken for å se navnet på stasjonen.

Klikk så for å se værobservasjoner og -varsler.

For å forandre kartet kan du klikke på den grønne knappen med svart kryss for å zoome inn, på den grønne knappen med strek for å zoome ut, eller på de grønne pilene for å se tilstøtende kart.


METAR-TAF: